createdAt,value
2024-02-03T00:00:38.436Z,6.02
2024-02-03T00:03:25.477Z,6.04
2024-02-03T00:05:52.829Z,6.10
2024-02-03T00:08:19.678Z,6.01
2024-02-03T00:10:46.941Z,6.00
2024-02-03T00:13:13.904Z,6.00
2024-02-03T00:15:41.143Z,5.97
2024-02-03T00:18:08.401Z,6.16
2024-02-03T00:20:35.633Z,6.14
2024-02-03T00:23:02.509Z,6.09
2024-02-03T00:25:29.696Z,6.00
2024-02-03T00:28:05.354Z,6.20
2024-02-03T00:30:32.559Z,6.08
2024-02-03T00:32:59.669Z,6.20
2024-02-03T00:35:26.902Z,6.12
2024-02-03T00:37:53.788Z,6.06
2024-02-03T00:40:21.130Z,6.00
2024-02-03T00:42:50.125Z,6.01
2024-02-03T00:45:17.982Z,6.13
2024-02-03T00:47:45.720Z,5.98
2024-02-03T00:50:15.996Z,6.00
2024-02-03T00:52:43.807Z,6.03
2024-02-03T00:55:11.565Z,6.10
2024-02-03T00:57:38.458Z,6.27
2024-02-03T01:00:07.747Z,6.18
2024-02-03T01:02:34.725Z,6.29
2024-02-03T01:05:02.184Z,6.35
2024-02-03T01:07:29.149Z,6.23
2024-02-03T01:09:56.370Z,6.13
2024-02-03T01:12:23.303Z,6.09
2024-02-03T01:14:50.429Z,6.20
2024-02-03T01:17:17.309Z,6.19
2024-02-03T01:19:44.849Z,6.12
2024-02-03T01:22:11.749Z,6.05
2024-02-03T01:24:41.766Z,6.06
2024-02-03T01:27:08.758Z,6.06
2024-02-03T01:29:35.847Z,6.06
2024-02-03T01:32:02.950Z,6.16
2024-02-03T01:34:31.080Z,6.12
2024-02-03T01:36:58.287Z,6.38
2024-02-03T01:39:25.556Z,6.36
2024-02-03T01:41:52.430Z,6.39
2024-02-03T01:44:19.951Z,6.45
2024-02-03T01:46:48.605Z,6.57
2024-02-03T01:49:18.677Z,6.69
2024-02-03T01:51:45.594Z,6.82
2024-02-03T01:54:12.927Z,6.93
2024-02-03T01:56:43.619Z,7.00
2024-02-03T01:59:10.846Z,7.03
2024-02-03T02:01:37.799Z,7.04
2024-02-03T02:04:05.181Z,7.01
2024-02-03T02:06:32.354Z,7.01
2024-02-03T02:08:59.736Z,7.05
2024-02-03T02:11:26.936Z,7.03
2024-02-03T02:13:54.193Z,7.07
2024-02-03T02:16:21.204Z,7.04
2024-02-03T02:18:48.637Z,6.99
2024-02-03T02:21:17.994Z,6.92
2024-02-03T02:23:45.249Z,6.83
2024-02-03T02:26:12.102Z,6.78
2024-02-03T02:28:39.889Z,6.83
2024-02-03T02:31:07.828Z,6.83
2024-02-03T02:33:35.149Z,6.77
2024-02-03T02:36:02.116Z,6.76
2024-02-03T02:38:30.001Z,6.75
2024-02-03T02:40:56.980Z,6.74
2024-02-03T02:43:24.171Z,6.76
2024-02-03T02:45:51.076Z,6.73
2024-02-03T02:48:18.422Z,6.73
2024-02-03T02:50:45.638Z,6.68
2024-02-03T02:53:12.889Z,6.65
2024-02-03T02:55:39.777Z,6.63
2024-02-03T02:58:07.245Z,6.60
2024-02-03T03:00:34.106Z,6.50
2024-02-03T03:03:01.650Z,6.45
2024-02-03T03:05:28.632Z,6.43
2024-02-03T03:07:55.869Z,6.40
2024-02-03T03:10:22.759Z,6.36
2024-02-03T03:12:50.028Z,6.32
2024-02-03T03:15:17.021Z,6.37
2024-02-03T03:17:44.190Z,6.45
2024-02-03T03:20:12.614Z,6.37
2024-02-03T03:22:39.706Z,6.38
2024-02-03T03:25:06.697Z,6.38
2024-02-03T03:27:33.806Z,6.40
2024-02-03T03:30:00.639Z,6.34
2024-02-03T03:32:27.864Z,6.32
2024-02-03T03:34:54.740Z,6.30
2024-02-03T03:37:21.967Z,6.54
2024-02-03T03:39:50.301Z,6.50
2024-02-03T03:42:17.485Z,6.43
2024-02-03T03:44:45.029Z,6.40
2024-02-03T03:47:15.693Z,6.34
2024-02-03T03:49:42.706Z,6.24
2024-02-03T03:52:10.136Z,6.20
2024-02-03T03:54:37.021Z,6.20
2024-02-03T03:57:04.392Z,6.18
2024-02-03T03:59:31.687Z,6.26
2024-02-03T04:02:01.416Z,6.37
2024-02-03T04:04:28.558Z,6.28
2024-02-03T04:06:55.689Z,6.24
2024-02-03T04:09:22.571Z,6.30
2024-02-03T04:11:50.043Z,6.47
2024-02-03T04:14:16.893Z,6.67
2024-02-03T04:16:44.041Z,6.92
2024-02-03T04:19:11.278Z,7.35
2024-02-03T04:21:38.582Z,7.54
2024-02-03T04:24:05.684Z,7.74
2024-02-03T04:26:32.893Z,7.96
2024-02-03T04:28:59.828Z,8.12
2024-02-03T04:31:26.978Z,8.16
2024-02-03T04:33:53.965Z,8.28
2024-02-03T04:36:21.248Z,8.38
2024-02-03T04:38:48.124Z,8.39
2024-02-03T04:41:23.481Z,8.45
2024-02-03T04:43:50.603Z,8.48
2024-02-03T04:46:18.082Z,8.46
2024-02-03T04:48:48.839Z,8.45
2024-02-03T04:51:16.789Z,8.37
2024-02-03T04:53:43.908Z,8.47
2024-02-03T04:56:11.369Z,8.46
2024-02-03T04:58:38.489Z,8.48
2024-02-03T05:01:06.330Z,8.43
2024-02-03T05:03:34.017Z,8.41
2024-02-03T05:06:06.209Z,8.37
2024-02-03T05:08:33.923Z,8.33
2024-02-03T05:11:01.163Z,8.29
2024-02-03T05:13:28.220Z,8.31
2024-02-03T05:15:55.657Z,8.25
2024-02-03T05:18:23.424Z,8.22
2024-02-03T05:20:50.858Z,8.23
2024-02-03T05:23:18.045Z,8.27
2024-02-03T05:25:45.255Z,8.18
2024-02-03T05:28:12.173Z,8.20
2024-02-03T05:30:39.473Z,8.17
2024-02-03T05:33:06.762Z,8.17
2024-02-03T05:35:34.060Z,8.25
2024-02-03T05:38:00.866Z,8.14
2024-02-03T05:40:28.201Z,8.23
2024-02-03T05:42:55.299Z,8.20
2024-02-03T05:45:23.535Z,8.12
2024-02-03T05:47:53.457Z,8.09
2024-02-03T05:50:20.635Z,8.11
2024-02-03T05:52:47.467Z,8.13
2024-02-03T05:55:15.095Z,8.10
2024-02-03T05:57:52.594Z,8.08
2024-02-03T06:00:20.422Z,8.06
2024-02-03T06:02:47.788Z,8.07
2024-02-03T06:05:17.026Z,8.07
2024-02-03T06:07:44.207Z,8.11
2024-02-03T06:10:11.385Z,8.06
2024-02-03T06:12:38.355Z,8.06
2024-02-03T06:15:05.966Z,8.08
2024-02-03T06:17:32.909Z,8.06
2024-02-03T06:20:00.342Z,8.10
2024-02-03T06:22:27.349Z,8.09
2024-02-03T06:24:54.779Z,8.09
2024-02-03T06:27:21.686Z,8.08
2024-02-03T06:29:48.888Z,8.11
2024-02-03T06:32:15.720Z,8.14
2024-02-03T06:34:43.088Z,8.14
2024-02-03T06:37:10.083Z,8.10
2024-02-03T06:39:40.074Z,8.15
2024-02-03T06:42:07.250Z,8.11
2024-02-03T06:44:34.531Z,8.15
2024-02-03T06:47:01.429Z,8.17
2024-02-03T06:49:28.701Z,8.24
2024-02-03T06:51:55.714Z,8.21
2024-02-03T06:54:22.909Z,8.17
2024-02-03T06:56:49.757Z,8.26
2024-02-03T06:59:19.849Z,8.25
2024-02-03T07:01:46.833Z,8.22
2024-02-03T07:04:14.240Z,8.20
2024-02-03T07:06:41.556Z,8.28
2024-02-03T07:09:09.563Z,8.27
2024-02-03T07:11:36.486Z,8.26
2024-02-03T07:14:03.754Z,8.32
2024-02-03T07:16:30.883Z,8.31
2024-02-03T07:18:58.909Z,8.30
2024-02-03T07:21:25.842Z,8.31
2024-02-03T07:23:53.025Z,8.34
2024-02-03T07:26:19.917Z,8.28
2024-02-03T07:28:47.053Z,8.25
2024-02-03T07:31:13.862Z,8.28
2024-02-03T07:33:41.094Z,8.34
2024-02-03T07:36:08.254Z,8.34
2024-02-03T07:38:35.456Z,8.33
2024-02-03T07:41:02.269Z,8.40
2024-02-03T07:43:30.380Z,8.39
2024-02-03T07:45:57.274Z,8.38
2024-02-03T07:48:24.479Z,8.43
2024-02-03T07:50:51.276Z,8.51
2024-02-03T07:53:18.527Z,8.56
2024-02-03T07:55:45.344Z,8.54
2024-02-03T07:58:12.623Z,8.64
2024-02-03T08:00:39.623Z,8.66
2024-02-03T08:03:06.834Z,8.75
2024-02-03T08:05:33.937Z,8.74
2024-02-03T08:08:01.296Z,8.82
2024-02-03T08:10:29.974Z,8.87
2024-02-03T08:12:59.830Z,8.90
2024-02-03T08:15:27.050Z,8.86
2024-02-03T08:17:54.229Z,8.85
2024-02-03T08:20:21.141Z,8.84
2024-02-03T08:22:48.357Z,8.88
2024-02-03T08:25:15.274Z,8.85
2024-02-03T08:27:42.856Z,8.75
2024-02-03T08:30:10.273Z,8.76
2024-02-03T08:32:37.551Z,8.73
2024-02-03T08:37:34.756Z,8.73
2024-02-03T08:40:01.648Z,8.74
2024-02-03T08:42:28.888Z,8.77
2024-02-03T08:44:55.684Z,8.75
2024-02-03T08:47:22.816Z,8.74
2024-02-03T08:49:54.446Z,8.79
2024-02-03T08:52:21.654Z,8.81
2024-02-03T08:54:48.503Z,8.85
2024-02-03T08:57:15.783Z,8.84
2024-02-03T08:59:42.865Z,8.88
2024-02-03T09:02:12.523Z,8.90
2024-02-03T09:04:40.624Z,8.87
2024-02-03T09:07:07.868Z,8.92
2024-02-03T09:09:34.866Z,9.00
2024-02-03T09:12:06.072Z,9.02
2024-02-03T09:14:32.988Z,8.96
2024-02-03T09:17:00.191Z,9.02
2024-02-03T09:19:28.235Z,9.04
2024-02-03T09:21:55.556Z,9.01
2024-02-03T09:24:22.480Z,9.03
2024-02-03T09:26:49.598Z,9.03
2024-02-03T09:29:18.174Z,8.99
2024-02-03T09:31:45.397Z,9.00
2024-02-03T09:34:12.611Z,9.02
2024-02-03T09:39:13.111Z,9.19
2024-02-03T09:41:40.568Z,9.10
2024-02-03T09:44:07.848Z,9.16
2024-02-03T09:46:34.982Z,9.21
2024-02-03T09:49:04.659Z,9.16
2024-02-03T09:51:32.327Z,9.21
2024-02-03T09:53:59.565Z,9.28
2024-02-03T09:56:27.127Z,9.24
2024-02-03T09:58:56.910Z,9.20
2024-02-03T10:01:24.085Z,9.20
2024-02-03T10:04:00.327Z,9.26
2024-02-03T10:06:27.863Z,9.33
2024-02-03T10:08:55.166Z,9.19
2024-02-03T10:11:23.541Z,9.29
2024-02-03T10:14:01.481Z,9.50
2024-02-03T10:16:29.805Z,9.61
2024-02-03T10:18:56.857Z,9.57
2024-02-03T10:21:26.992Z,9.54
2024-02-03T10:23:54.014Z,9.58
2024-02-03T10:26:21.193Z,9.64
2024-02-03T10:28:48.171Z,9.62
2024-02-03T10:31:15.364Z,9.67
2024-02-03T10:33:45.746Z,9.61
2024-02-03T10:36:13.126Z,9.47
2024-02-03T10:38:42.304Z,9.55
2024-02-03T10:41:13.562Z,9.69
2024-02-03T10:43:41.429Z,9.65
2024-02-03T10:46:12.084Z,9.96
2024-02-03T10:48:43.665Z,9.99
2024-02-03T10:51:20.359Z,10.10
2024-02-03T10:53:57.103Z,10.31
2024-02-03T10:56:29.581Z,10.34
2024-02-03T10:58:58.895Z,10.48
2024-02-03T11:01:35.680Z,10.71
2024-02-03T11:04:03.967Z,10.63
2024-02-03T11:06:34.828Z,11.60
2024-02-03T11:09:24.671Z,12.08
2024-02-03T11:11:53.941Z,11.75
2024-02-03T11:14:26.234Z,11.47
2024-02-03T11:16:55.693Z,11.23
2024-02-03T11:19:28.412Z,11.04
2024-02-03T11:22:00.796Z,10.90
2024-02-03T11:24:28.658Z,10.88
2024-02-03T11:27:00.037Z,11.16
2024-02-03T11:29:27.309Z,11.15
2024-02-03T11:32:01.431Z,11.18
2024-02-03T11:34:29.045Z,11.50
2024-02-03T11:36:57.029Z,11.56
2024-02-03T11:39:37.189Z,11.08
2024-02-03T11:42:08.634Z,11.15
2024-02-03T11:45:00.125Z,11.04
2024-02-03T11:47:27.465Z,10.96
2024-02-03T11:49:54.739Z,10.83
2024-02-03T11:52:25.870Z,10.64
2024-02-03T11:54:54.624Z,10.67
2024-02-03T11:57:22.023Z,10.67
2024-02-03T11:59:49.004Z,10.58
2024-02-03T12:02:18.797Z,10.63
2024-02-03T12:04:45.919Z,10.58
2024-02-03T12:07:13.317Z,10.72
2024-02-03T12:09:41.461Z,10.82
2024-02-03T12:12:10.125Z,11.02
2024-02-03T12:14:37.117Z,10.98
2024-02-03T12:17:04.539Z,11.11
2024-02-03T12:19:31.914Z,10.93
2024-02-03T12:21:59.825Z,10.98
2024-02-03T12:24:27.338Z,10.86
2024-02-03T12:26:54.817Z,10.86
2024-02-03T12:29:21.747Z,10.83
2024-02-03T12:31:48.905Z,10.83
2024-02-03T12:34:15.874Z,10.95
2024-02-03T12:36:43.399Z,10.97
2024-02-03T12:39:13.952Z,10.91
2024-02-03T12:41:41.599Z,11.01
2024-02-03T12:44:08.519Z,10.94
2024-02-03T12:46:38.508Z,10.84
2024-02-03T12:49:05.917Z,10.81
2024-02-03T12:51:33.291Z,10.66
2024-02-03T12:54:00.744Z,10.72
2024-02-03T12:56:28.163Z,10.72
2024-02-03T12:58:55.410Z,10.62
2024-02-03T13:01:23.163Z,10.48
2024-02-03T13:03:50.702Z,10.46
2024-02-03T13:06:18.784Z,10.42
2024-02-03T13:08:46.268Z,10.36
2024-02-03T13:11:17.114Z,10.29
2024-02-03T13:13:45.609Z,10.22
2024-02-03T13:16:13.215Z,10.22
2024-02-03T13:18:40.605Z,10.26
2024-02-03T13:21:08.164Z,10.38
2024-02-03T13:23:38.842Z,10.37
2024-02-03T13:26:09.339Z,10.32
2024-02-03T13:28:38.267Z,10.36
2024-02-03T13:31:05.530Z,10.50
2024-02-03T13:33:33.091Z,10.58
2024-02-03T13:36:00.805Z,10.50
2024-02-03T13:38:27.896Z,10.53
2024-02-03T13:40:55.183Z,10.60
2024-02-03T13:43:22.092Z,10.58
2024-02-03T13:45:49.294Z,10.36
2024-02-03T13:48:16.297Z,10.28
2024-02-03T13:50:43.650Z,10.30
2024-02-03T13:53:10.722Z,10.29
2024-02-03T13:55:38.460Z,10.26
2024-02-03T13:58:05.372Z,10.21
2024-02-03T14:00:32.805Z,10.23
2024-02-03T14:02:59.784Z,10.32
2024-02-03T14:05:28.053Z,10.51
2024-02-03T14:07:54.934Z,10.61
2024-02-03T14:10:22.307Z,10.56
2024-02-03T14:12:49.344Z,10.51
2024-02-03T14:15:16.729Z,10.59
2024-02-03T14:17:44.167Z,10.59
2024-02-03T14:20:11.444Z,10.61
2024-02-03T14:22:38.300Z,10.56
2024-02-03T14:25:05.734Z,10.61
2024-02-03T14:27:34.280Z,10.44
2024-02-03T14:30:01.708Z,10.31
2024-02-03T14:32:28.596Z,10.41
2024-02-03T14:34:56.022Z,10.35
2024-02-03T14:37:23.139Z,10.35
2024-02-03T14:39:50.576Z,10.45
2024-02-03T14:42:19.073Z,10.48
2024-02-03T14:44:46.407Z,10.40
2024-02-03T14:47:13.257Z,10.47
2024-02-03T14:49:40.564Z,10.41
2024-02-03T14:52:07.730Z,10.26
2024-02-03T14:54:37.038Z,10.33
2024-02-03T14:57:04.695Z,10.41
2024-02-03T14:59:32.904Z,10.32
2024-02-03T15:02:02.895Z,10.20
2024-02-03T15:04:31.213Z,10.15
2024-02-03T15:06:58.389Z,10.10
2024-02-03T15:09:26.121Z,10.04
2024-02-03T15:11:53.073Z,10.05
2024-02-03T15:14:20.227Z,10.05
2024-02-03T15:16:47.203Z,10.07
2024-02-03T15:19:14.620Z,10.07
2024-02-03T15:21:41.746Z,10.08
2024-02-03T15:24:09.194Z,10.05
2024-02-03T15:26:36.200Z,10.14
2024-02-03T15:29:03.611Z,10.02
2024-02-03T15:31:30.781Z,9.99
2024-02-03T15:33:58.211Z,10.08
2024-02-03T15:36:26.902Z,10.18
2024-02-03T15:38:57.997Z,10.25
2024-02-03T15:41:25.111Z,10.24
2024-02-03T15:43:52.689Z,10.26
2024-02-03T15:46:24.958Z,10.29
2024-02-03T15:48:57.985Z,10.30
2024-02-03T15:51:25.293Z,10.34
2024-02-03T15:53:52.845Z,10.22
2024-02-03T15:56:20.230Z,10.10
2024-02-03T15:58:48.059Z,10.02
2024-02-03T16:01:15.723Z,9.99
2024-02-03T16:03:43.568Z,9.94
2024-02-03T16:06:10.884Z,9.96
2024-02-03T16:08:38.640Z,9.98
2024-02-03T16:11:06.351Z,9.94
2024-02-03T16:13:34.015Z,9.90
2024-02-03T16:16:01.697Z,9.87
2024-02-03T16:18:29.808Z,9.94
2024-02-03T16:20:57.224Z,9.89
2024-02-03T16:23:25.009Z,9.89
2024-02-03T16:25:52.222Z,9.83
2024-02-03T16:28:20.048Z,9.82
2024-02-03T16:30:47.564Z,9.78
2024-02-03T16:33:15.272Z,9.76
2024-02-03T16:35:42.788Z,9.77
2024-02-03T16:38:11.118Z,9.80
2024-02-03T16:40:38.422Z,9.75
2024-02-03T16:43:06.103Z,9.75
2024-02-03T16:45:35.288Z,9.76
2024-02-03T16:48:02.978Z,9.74
2024-02-03T16:50:30.400Z,9.71
2024-02-03T16:52:58.028Z,9.69
2024-02-03T16:55:28.038Z,9.72
2024-02-03T16:57:55.654Z,9.72
2024-02-03T17:00:23.307Z,9.70
2024-02-03T17:02:53.612Z,9.69
2024-02-03T17:05:20.969Z,9.73
2024-02-03T17:07:48.696Z,9.74
2024-02-03T17:10:23.941Z,9.74
2024-02-03T17:12:54.721Z,9.76
2024-02-03T17:15:23.958Z,9.73
2024-02-03T17:17:54.340Z,9.80
2024-02-03T17:20:22.921Z,9.77
2024-02-03T17:22:52.392Z,9.81
2024-02-03T17:25:34.316Z,9.81
2024-02-03T17:28:02.397Z,9.84
2024-02-03T17:30:30.862Z,9.81
2024-02-03T17:33:00.797Z,9.76
2024-02-03T17:35:28.228Z,9.73
2024-02-03T17:37:55.966Z,9.76
2024-02-03T17:40:25.818Z,9.73
2024-02-03T17:42:53.645Z,9.77
2024-02-03T17:45:24.400Z,9.77
2024-02-03T17:47:58.295Z,9.75
2024-02-03T17:50:26.750Z,9.71
2024-02-03T17:52:59.676Z,9.71
2024-02-03T17:55:26.926Z,9.70
2024-02-03T17:57:56.898Z,9.79
2024-02-03T18:00:29.565Z,9.75
2024-02-03T18:03:07.140Z,9.76
2024-02-03T18:05:39.633Z,9.80
2024-02-03T18:08:13.233Z,9.72
2024-02-03T18:10:40.672Z,9.66
2024-02-03T18:13:17.321Z,9.71
2024-02-03T18:15:47.690Z,9.62
2024-02-03T18:18:26.619Z,9.63
2024-02-03T18:21:01.364Z,9.55
2024-02-03T18:23:37.026Z,9.54
2024-02-03T18:26:18.500Z,9.45
2024-02-03T18:28:54.604Z,9.55
2024-02-03T18:31:45.527Z,9.49
2024-02-03T18:34:16.563Z,9.55
2024-02-03T18:36:46.649Z,9.53
2024-02-03T18:39:14.465Z,9.47
2024-02-03T18:41:42.129Z,9.46
2024-02-03T18:44:09.958Z,9.50
2024-02-03T18:46:37.255Z,9.45
2024-02-03T18:49:04.751Z,9.45
2024-02-03T18:51:32.031Z,9.40
2024-02-03T18:53:59.365Z,9.43
2024-02-03T18:56:27.391Z,9.46
2024-02-03T18:58:55.495Z,9.50
2024-02-03T19:01:24.280Z,9.46
2024-02-03T19:03:52.135Z,9.46
2024-02-03T19:06:19.171Z,9.49
2024-02-03T19:08:47.075Z,9.46
2024-02-03T19:11:13.938Z,9.39
2024-02-03T19:13:41.114Z,9.40
2024-02-03T19:16:08.353Z,9.35
2024-02-03T19:18:35.653Z,9.40
2024-02-03T19:21:03.042Z,9.41
2024-02-03T19:23:31.147Z,9.34
2024-02-03T19:25:59.137Z,9.38
2024-02-03T19:28:26.332Z,9.35
2024-02-03T19:30:53.178Z,9.42
2024-02-03T19:33:23.712Z,9.33
2024-02-03T19:35:51.234Z,9.39
2024-02-03T19:38:19.424Z,9.33
2024-02-03T19:40:50.215Z,9.27
2024-02-03T19:43:18.461Z,9.26
2024-02-03T19:45:45.432Z,9.24
2024-02-03T19:48:12.680Z,9.24
2024-02-03T19:50:40.099Z,9.28
2024-02-03T19:53:07.670Z,9.22
2024-02-03T19:55:34.941Z,9.19
2024-02-03T19:58:02.188Z,9.15
2024-02-03T20:00:32.180Z,9.16
2024-02-03T20:02:59.494Z,9.16
2024-02-03T20:05:26.594Z,9.16
2024-02-03T20:07:54.101Z,9.21
2024-02-03T20:10:21.720Z,9.18
2024-02-03T20:12:49.095Z,9.25
2024-02-03T20:15:16.380Z,9.21
2024-02-03T20:17:43.819Z,9.26
2024-02-03T20:20:11.395Z,9.28
2024-02-03T20:22:38.721Z,9.26
2024-02-03T20:25:07.899Z,9.26
2024-02-03T20:27:36.570Z,9.23
2024-02-03T20:30:03.864Z,9.18
2024-02-03T20:32:31.200Z,9.16
2024-02-03T20:35:01.377Z,9.22
2024-02-03T20:37:28.838Z,9.19
2024-02-03T20:39:56.437Z,9.19
2024-02-03T20:42:23.633Z,9.21
2024-02-03T20:44:50.577Z,9.17
2024-02-03T20:47:17.838Z,9.13
2024-02-03T20:49:45.091Z,9.16
2024-02-03T20:52:12.372Z,9.14
2024-02-03T20:54:39.552Z,9.14
2024-02-03T20:57:11.508Z,9.16
2024-02-03T20:59:38.539Z,9.21
2024-02-03T21:02:06.434Z,9.21
2024-02-03T21:04:33.488Z,9.22
2024-02-03T21:07:04.118Z,9.19
2024-02-03T21:09:31.746Z,9.20
2024-02-03T21:11:58.985Z,9.16
2024-02-03T21:14:25.972Z,9.12
2024-02-03T21:16:53.233Z,9.18
2024-02-03T21:19:20.244Z,9.12
2024-02-03T21:21:47.853Z,9.18
2024-02-03T21:24:15.694Z,9.19
2024-02-03T21:26:47.559Z,9.24
2024-02-03T21:29:15.335Z,9.29
2024-02-03T21:31:43.092Z,9.32
2024-02-03T21:34:11.132Z,9.29
2024-02-03T21:36:38.392Z,9.28
2024-02-03T21:39:11.554Z,9.32
2024-02-03T21:41:42.537Z,9.35
2024-02-03T21:44:09.368Z,9.35
2024-02-03T21:46:36.537Z,9.35
2024-02-03T21:49:03.460Z,9.33
2024-02-03T21:51:30.729Z,9.28
2024-02-03T21:53:57.685Z,9.27
2024-02-03T21:56:24.778Z,9.22
2024-02-03T21:58:52.670Z,9.23
2024-02-03T22:01:23.063Z,9.18
2024-02-03T22:03:53.513Z,9.22
2024-02-03T22:06:24.082Z,9.20
2024-02-03T22:08:51.128Z,9.18
2024-02-03T22:11:17.863Z,9.18
2024-02-03T22:13:45.002Z,9.11
2024-02-03T22:16:11.887Z,9.07
2024-02-03T22:18:39.241Z,9.04
2024-02-03T22:21:06.096Z,8.95
2024-02-03T22:23:33.241Z,8.97
2024-02-03T22:26:00.186Z,8.98
2024-02-03T22:28:27.358Z,8.87
2024-02-03T22:30:54.174Z,8.84
2024-02-03T22:33:21.496Z,8.82
2024-02-03T22:35:48.420Z,8.74
2024-02-03T22:38:15.606Z,8.71
2024-02-03T22:40:42.466Z,8.71
2024-02-03T22:43:09.687Z,8.71
2024-02-03T22:45:37.709Z,8.64
2024-02-03T22:48:07.146Z,8.73
2024-02-03T22:50:34.116Z,8.73
2024-02-03T22:53:01.254Z,8.78
2024-02-03T22:55:28.204Z,8.83
2024-02-03T22:57:55.402Z,8.80
2024-02-03T23:00:34.407Z,8.81
2024-02-03T23:03:01.958Z,8.74
2024-02-03T23:05:32.718Z,8.78
2024-02-03T23:07:59.915Z,8.76
2024-02-03T23:10:26.866Z,8.78
2024-02-03T23:12:54.144Z,8.71
2024-02-03T23:15:21.114Z,8.75
2024-02-03T23:17:48.451Z,8.76
2024-02-03T23:20:19.834Z,8.80
2024-02-03T23:22:47.139Z,8.82
2024-02-03T23:25:14.082Z,8.84
2024-02-03T23:27:41.338Z,8.85
2024-02-03T23:30:10.597Z,8.90
2024-02-03T23:32:41.176Z,8.89
2024-02-03T23:35:08.796Z,8.88
2024-02-03T23:37:36.254Z,8.79
2024-02-03T23:40:06.160Z,8.75
2024-02-03T23:42:34.987Z,8.72
2024-02-03T23:45:02.100Z,8.80
2024-02-03T23:47:29.635Z,8.83
2024-02-03T23:49:56.697Z,8.81
2024-02-03T23:52:23.951Z,8.82
2024-02-03T23:54:50.936Z,8.83
2024-02-03T23:57:18.043Z,8.85
2024-02-03T23:59:44.962Z,8.85
